Time;durP1;ratioP1;P1;durP2;ratioP2;P2;SDS_P1;SDS_P2;PMS_P1;PMS_P2;Temp;Humidity;BMP_temperature;BMP_pressure;BME280_temperature;BME280_humidity;BME280_pressure;Samples;Min_cycle;Max_cycle;Signal;HPM_P1;HPM_P2
2021/09/27 00:02:20;;;;;;;4.80;3.30;;;;;;;22.02;48.55;101308.15;109887;1249;60333;-80
2021/09/27 00:12:19;;;;;;;4.90;3.20;;;;;;;22.02;48.62;101310.14;109979;1246;59330;-82
2021/09/27 00:16:07;;;;;;;5.30;3.60;;;;;;;22.03;48.57;101304.19;109993;1246;59397;-79
2021/09/27 00:19:26;;;;;;;;;;;;;;;;;;;;;
2021/09/27 00:23:16;;;;;;;;;;;;;;;;;;;;;
2021/09/27 00:26:43;;;;;;;;;;;;;;;;;;;;;
2021/09/27 00:30:20;;;;;;;;;;;;;;;;;;;;;
2021/09/27 00:34:24;;;;;;;;;;;;;;;;;;;;;
2021/09/27 00:38:16;;;;;;;4.80;3.40;;;;;;;22.02;48.77;101287.59;110793;1236;71672;-79
2021/09/27 00:42:03;;;;;;;6.90;3.60;;;;;;;22.02;48.93;101288.66;111091;1234;59316;-87
2021/09/27 00:45:23;;;;;;;;;;;;;;;;;;;;;
2021/09/27 00:48:49;;;;;;;6.00;3.70;;;;;;;22.02;48.81;101283.44;110600;1237;71725;-89
2021/09/27 00:52:28;;;;;;;;;;;;;;;;;;;;;
2021/09/27 00:56:21;;;;;;;;;;;;;;;;;;;;;
2021/09/27 00:59:47;;;;;;;4.80;3.60;;;;;;;22.01;48.94;101279.20;110661;1235;61231;-88
2021/09/27 01:03:26;;;;;;;;;;;;;;;;;;;;;
2021/09/27 01:07:14;;;;;;;;;;;;;;;;;;;;;
2021/09/27 01:11:04;;;;;;;;;;;;;;;;;;;;;
2021/09/27 01:15:06;;;;;;;5.20;3.50;;;;;;;22.01;49.05;101282.63;109875;1247;59445;-86
2021/09/27 01:31:05;;;;;;;6.10;3.70;;;;;;;22.03;49.05;101279.79;113024;1209;601460;-84
2021/09/27 01:35:03;;;;;;;5.60;3.40;;;;;;;22.00;49.20;101285.40;113012;1217;69820;-87
2021/09/27 01:41:51;;;;;;;;;;;;;;;;;;;;;
2021/09/27 01:45:41;;;;;;;;;;;;;;;;;;;;;
2021/09/27 01:52:59;;;;;;;;;;;;;;;;;;;;;
2021/09/27 01:57:00;;;;;;;6.90;3.60;;;;;;;21.99;49.11;101291.01;110779;1237;61081;-86
2021/09/27 02:00:31;;;;;;;;;;;;;;;;;;;;;
2021/09/27 02:11:19;;;;;;;;;;;;;;;;;;;;;
2021/09/27 02:19:30;;;;;;;5.60;3.90;;;;;;;22.00;49.34;101288.08;112839;1220;60181;-90
2021/09/27 02:26:20;;;;;;;;;;;;;;;;;;;;;
2021/09/27 02:30:31;;;;;;;4.90;3.60;;;;;;;22.00;49.47;101282.89;110946;1236;72098;-87
2021/09/27 02:33:41;;;;;;;4.40;3.10;;;;;;;21.99;49.41;101282.94;110285;1242;59181;-81
2021/09/27 02:41:48;;;;;;;4.90;3.20;;;;;;;22.03;49.42;101273.15;113078;1209;600049;-79
2021/09/27 02:45:08;;;;;;;;;;;;;;;;;;;;;
2021/09/27 02:48:53;;;;;;;;;;;;;;;;;;;;;
2021/09/27 02:52:30;;;;;;;;;;;;;;;;;;;;;
2021/09/27 02:56:07;;;;;;;;;;;;;;;;;;;;;
2021/09/27 03:00:25;;;;;;;;;;;;;;;;;;;;;
2021/09/27 03:03:57;;;;;;;;;;;;;;;;;;;;;
2021/09/27 03:08:23;;;;;;;4.20;3.10;;;;;;;21.98;49.46;101258.08;110678;1237;63013;-84
2021/09/27 03:11:32;;;;;;;5.50;3.60;;;;;;;21.98;49.35;101259.00;110520;1240;75586;-85
2021/09/27 03:15:42;;;;;;;4.70;3.60;;;;;;;21.98;49.51;101259.38;110329;1243;73589;-85
2021/09/27 03:23:12;;;;;;;4.90;3.80;;;;;;;21.97;49.54;101258.69;110482;1239;59454;-81
2021/09/27 03:26:47;;;;;;;;;;;;;;;;;;;;;
2021/09/27 03:30:39;;;;;;;6.20;3.80;;;;;;;21.97;49.54;101258.00;110164;1244;73014;-89
2021/09/27 03:34:37;;;;;;;;;;;;;;;;;;;;;
2021/09/27 03:38:58;;;;;;;5.20;3.60;;;;;;;21.96;49.48;101257.36;110517;1239;59578;-84
2021/09/27 03:42:00;;;;;;;5.50;3.70;;;;;;;21.95;49.45;101267.79;110230;1243;71424;-83
2021/09/27 03:46:08;;;;;;;5.80;3.70;;;;;;;21.95;49.64;101265.66;110352;1241;73745;-85
2021/09/27 03:50:08;;;;;;;6.10;3.80;;;;;;;21.93;49.48;101271.30;110190;1244;61140;-83
2021/09/27 03:53:46;;;;;;;5.00;3.50;;;;;;;21.91;49.53;101276.48;110351;1241;59997;-86
2021/09/27 03:57:08;;;;;;;5.10;3.70;;;;;;;21.90;49.61;101280.87;110371;1241;74283;-89
2021/09/27 04:00:58;;;;;;;;;;;;;;;;;;;;;
2021/09/27 04:04:19;;;;;;;;;;;;;;;;;;;;;
2021/09/27 04:12:27;;;;;;;9.10;4.80;;;;;;;21.85;49.00;101272.02;113195;1208;600886;-88
2021/09/27 04:16:35;;;;;;;7.00;4.80;;;;;;;21.79;48.72;101271.73;113157;1214;72510;-86
2021/09/27 04:31:32;;;;;;;;;;;;;;;;;;;;;
2021/09/27 04:38:58;;;;;;;;;;;;;;;;;;;;;
2021/09/27 04:45:50;;;;;;;11.20;6.10;;;;;;;21.57;47.18;101281.60;112663;1218;59798;-79
2021/09/27 04:49:35;;;;;;;11.10;5.80;;;;;;;21.55;46.90;101280.83;112622;1219;60105;-81
2021/09/27 04:53:00;;;;;;;10.60;6.00;;;;;;;21.51;46.61;101281.61;111937;1224;73872;-81
2021/09/27 04:56:52;;;;;;;9.60;5.10;;;;;;;21.47;46.52;101276.35;111454;1228;72002;-82
2021/09/27 05:00:18;;;;;;;13.30;4.20;;;;;;;21.40;46.18;101277.08;110995;1232;60340;-82
2021/09/27 05:03:16;;;;;;;12.10;6.20;;;;;;;21.39;46.38;101282.58;110440;1238;61289;-80
2021/09/27 05:06:39;;;;;;;12.70;5.90;;;;;;;21.34;45.80;101286.61;110276;1237;72677;-79
2021/09/27 05:10:03;;;;;;;15.40;6.00;;;;;;;21.29;45.85;101287.48;110394;1231;73386;-79
2021/09/27 05:17:21;;;;;;;12.90;5.70;;;;;;;21.22;45.67;101292.93;110129;1241;59630;-80
2021/09/27 05:20:39;;;;;;;;;;;;;;;;;;;;;
2021/09/27 05:24:16;;;;;;;12.90;6.20;;;;;;;21.27;45.59;101291.02;109417;1244;71702;-80
2021/09/27 05:27:39;;;;;;;12.40;5.40;;;;;;;21.26;45.39;101291.80;109758;1244;60337;-79
2021/09/27 05:31:16;;;;;;;12.50;6.40;;;;;;;21.28;45.30;101286.50;109569;1244;61509;-79
2021/09/27 05:35:25;;;;;;;13.10;6.00;;;;;;;21.28;45.25;101292.07;109790;1241;72854;-80
2021/09/27 05:38:31;;;;;;;;;;;;;;;;;;;;;
2021/09/27 05:46:10;;;;;;;;;;;;;;;;;;;;;
2021/09/27 05:49:53;;;;;;;;;;;;;;;;;;;;;
2021/09/27 05:53:24;;;;;;;11.40;6.50;;;;;;;21.21;44.85;101290.48;109564;1243;73971;-79
2021/09/27 05:56:15;;;;;;;15.50;7.30;;;;;;;21.10;44.75;101290.31;109401;1244;61746;-80
2021/09/27 05:59:44;;;;;;;19.10;7.50;;;;;;;20.84;44.58;101293.89;109301;1244;60349;-81
2021/09/27 06:03:20;;;;;;;14.40;6.90;;;;;;;20.53;44.80;101292.05;109731;1243;73952;-84
2021/09/27 06:06:23;;;;;;;;;;;;;;;;;;;;;
2021/09/27 06:10:03;;;;;;;12.40;5.50;;;;;;;20.53;45.05;101297.54;110797;1241;60104;-80
2021/09/27 06:14:02;;;;;;;21.20;6.40;;;;;;;20.62;45.25;101295.94;110096;1240;61451;-81
2021/09/27 06:17:16;;;;;;;16.70;5.90;;;;;;;20.75;45.34;101301.82;110242;1237;73912;-82
2021/09/27 06:20:58;;;;;;;12.00;5.70;;;;;;;20.85;45.35;101299.59;110483;1234;71608;-83
2021/09/27 06:24:15;;;;;;;12.60;6.00;;;;;;;20.92;45.51;101301.48;110829;1231;62121;-80
2021/09/27 06:27:29;;;;;;;12.10;5.30;;;;;;;20.98;45.39;101300.89;110668;1227;61454;-81
2021/09/27 06:31:04;;;;;;;15.70;6.80;;;;;;;21.00;45.36;101307.42;111063;1233;71252;-81
2021/09/27 06:34:39;;;;;;;12.40;6.00;;;;;;;20.96;45.29;101315.58;111149;1228;74254;-84
2021/09/27 06:37:40;;;;;;;;;;;;;;;;;;;;;
2021/09/27 06:41:09;;;;;;;11.70;6.10;;;;;;;20.95;45.19;101321.31;110845;1230;60843;-81
2021/09/27 06:44:43;;;;;;;;;;;;;;;;;;;;;
2021/09/27 06:48:01;;;;;;;;;;;;;;;;;;;;;
2021/09/27 06:51:17;;;;;;;8.50;5.50;;;;;;;21.12;45.06;101317.05;109943;1242;59412;-80
2021/09/27 06:57:08;;;;;;;15.70;6.30;;;;;;;21.11;44.84;101309.77;109231;1243;72299;-80
2021/09/27 06:59:37;;;;;;;14.30;7.00;;;;;;;21.04;44.78;101310.55;109331;1243;73490;-84
2021/09/27 07:02:32;;;;;;;;;;;;;;;20.90;44.75;101315.39;109455;1241;60107;-83
2021/09/27 07:05:40;;;;;;;;;;;;;;;;;;;;;
2021/09/27 07:09:17;;;;;;;;;;;;;;;;;;;;;
2021/09/27 07:12:51;;;;;;;;;;;;;;;;;;;;;
2021/09/27 07:16:06;;;;;;;16.00;6.10;;;;;;;20.98;45.08;101323.30;110283;1238;59392;-80
2021/09/27 07:19:27;;;;;;;;;;;;;;;;;;;;;
2021/09/27 07:22:10;;;;;;;14.90;5.70;;;;;;;21.08;45.26;101322.27;110652;1241;72817;-80
2021/09/27 07:24:56;;;;;;;9.40;5.50;;;;;;;21.17;45.45;101322.29;110074;1241;73039;-82
2021/09/27 07:28:02;;;;;;;;;;;;;;;;;;;;;
2021/09/27 07:31:30;;;;;;;12.50;5.40;;;;;;;21.33;45.45;101318.23;110001;1238;59363;-80
2021/09/27 07:35:11;;;;;;;;;;;;;;;;;;;;;
2021/09/27 07:38:29;;;;;;;9.60;5.00;;;;;;;21.47;45.66;101316.45;109839;1240;75700;-81
2021/09/27 07:41:31;;;;;;;;;;;;;;;;;;;;;
2021/09/27 07:45:17;;;;;;;;;;;;;;;21.56;45.51;101314.83;109691;1243;59266;-80
2021/09/27 07:48:17;;;;;;;;;;;;;;;;;;;;;
2021/09/27 07:51:03;;;;;;;10.00;5.70;;;;;;;21.60;45.74;101315.92;111274;1235;71709;-80
2021/09/27 07:53:32;;;;;;;15.70;6.50;;;;;;;21.60;45.47;101320.63;111149;1236;58024;-80
2021/09/27 07:56:01;;;;;;;15.30;6.20;;;;;;;21.58;45.38;101321.10;111165;1234;61439;-81
2021/09/27 07:59:08;;;;;;;21.40;6.30;;;;;;;21.59;45.43;101321.06;109877;1235;73409;-81
2021/09/27 08:01:55;;;;;;;16.80;5.90;;;;;;;21.61;45.32;101324.88;109954;1234;73194;-79
2021/09/27 08:04:41;;;;;;;19.60;6.60;;;;;;;21.61;45.20;101322.19;110718;1234;61298;-80
2021/09/27 08:08:03;;;;;;;18.80;5.80;;;;;;;21.59;45.05;101323.37;110786;1233;61619;-83
2021/09/27 08:11:09;;;;;;;10.80;5.60;;;;;;;21.60;45.00;101318.44;109992;1234;72332;-81
2021/09/27 08:13:53;;;;;;;11.30;5.70;;;;;;;21.64;45.08;101317.00;110375;1232;74198;-79
2021/09/27 08:16:19;;;;;;;10.80;5.60;;;;;;;21.65;45.18;101314.20;112558;1227;61586;-79
2021/09/27 08:18:45;;;;;;;10.10;5.70;;;;;;;21.63;44.89;101309.67;112594;1225;57796;-80
2021/09/27 08:21:31;;;;;;;10.30;5.40;;;;;;;21.64;44.93;101305.50;111111;1221;59539;-81
2021/09/27 08:24:58;;;;;;;9.70;5.30;;;;;;;21.65;44.92;101298.64;111409;1221;72850;-82
2021/09/27 08:27:39;;;;;;;8.00;5.70;;;;;;;21.65;44.73;101303.69;112280;1217;61831;-79
2021/09/27 08:30:18;;;;;;;;;;;;;;;;;;;;;
2021/09/27 08:33:31;;;;;;;9.30;5.50;;;;;;;21.67;44.56;101304.20;112636;1217;73620;-80
2021/09/27 08:36:58;;;;;;;;;;;;;;;;;;;;;
2021/09/27 08:40:13;;;;;;;;;;;;;;;;;;;;;
2021/09/27 08:43:59;;;;;;;14.60;5.10;;;;;;;21.66;44.17;101295.16;112380;1221;59570;-81
2021/09/27 08:46:58;;;;;;;;;;;;;;;;;;;;;
2021/09/27 08:50:22;;;;;;;9.90;4.60;;;;;;;21.67;43.67;101291.37;112625;1221;73928;-83
2021/09/27 08:53:29;;;;;;;15.30;4.80;;;;;;;21.69;43.45;101292.45;111610;1221;59340;-80
2021/09/27 08:56:27;;;;;;;15.50;5.40;;;;;;;21.74;43.28;101290.52;112105;1222;61322;-80
2021/09/27 08:59:08;;;;;;;11.40;4.90;;;;;;;21.76;43.20;101286.77;112531;1224;74744;-79
2021/09/27 09:01:55;;;;;;;16.60;4.90;;;;;;;21.80;43.14;101281.89;112837;1219;73177;-80
2021/09/27 09:05:06;;;;;;;16.00;5.20;;;;;;;21.84;43.14;101275.52;113061;1219;61267;-80
2021/09/27 09:07:32;;;;;;;6.90;4.60;;;;;;;21.87;42.97;101280.52;112768;1222;60003;-80
2021/09/27 09:10:14;;;;;;;7.90;4.50;;;;;;;21.89;42.80;101278.61;112728;1222;57924;-80
2021/09/27 09:13:21;;;;;;;7.60;4.40;;;;;;;21.89;42.34;101279.10;112290;1216;72853;-81
2021/09/27 09:16:09;;;;;;;8.30;5.30;;;;;;;21.89;42.34;101281.41;113468;1216;60059;-79
2021/09/27 09:18:42;;;;;;;9.50;6.40;;;;;;;21.91;42.12;101277.56;113403;1216;60625;-80
2021/09/27 09:21:51;;;;;;;13.10;7.30;;;;;;;21.93;41.91;101271.86;112501;1218;73389;-81
2021/09/27 09:25:06;;;;;;;;;;;;;;;;;;;;;
2021/09/27 09:27:54;;;;;;;17.20;9.90;;;;;;;21.95;41.63;101263.30;113481;1217;60024;-80
2021/09/27 09:30:20;;;;;;;11.40;6.60;;;;;;;21.98;41.53;101263.85;113548;1216;61309;-79
2021/09/27 09:32:45;;;;;;;14.20;8.60;;;;;;;21.99;41.72;101263.52;113650;1213;57647;-80
2021/09/27 09:35:24;;;;;;;15.00;8.50;;;;;;;22.02;41.65;101259.26;113323;1212;58007;-82
2021/09/27 09:38:31;;;;;;;19.40;10.90;;;;;;;22.04;41.73;101257.48;112696;1213;61563;-81
2021/09/27 09:41:21;;;;;;;23.90;9.70;;;;;;;22.05;41.46;101251.02;112697;1213;62943;-81
2021/09/27 09:44:17;;;;;;;25.20;9.80;;;;;;;22.05;41.36;101248.45;112866;1210;73533;-81
2021/09/27 09:47:09;;;;;;;11.90;6.90;;;;;;;22.06;41.13;101234.41;112910;1210;72846;-81
2021/09/27 09:50:42;;;;;;;11.80;6.00;;;;;;;22.07;41.13;101230.02;112531;1216;59384;-80
2021/09/27 09:53:28;;;;;;;11.60;6.60;;;;;;;22.10;40.98;101223.56;112016;1219;60332;-81
2021/09/27 09:56:17;;;;;;;13.90;6.20;;;;;;;22.12;41.03;101218.77;111581;1218;72513;-80
2021/09/27 09:58:51;;;;;;;16.50;5.10;;;;;;;22.15;41.23;101211.25;111762;1219;74225;-81
2021/09/27 10:01:33;;;;;;;13.60;5.30;;;;;;;22.17;41.10;101210.56;113257;1219;60345;-80
2021/09/27 10:04:28;;;;;;;15.00;5.20;;;;;;;22.18;41.22;101203.81;112484;1218;60963;-81
2021/09/27 10:08:04;;;;;;;12.80;4.90;;;;;;;22.20;40.94;101209.41;112079;1218;72435;-81
2021/09/27 10:10:47;;;;;;;11.70;4.60;;;;;;;22.22;40.78;101212.37;112549;1219;73476;-81
2021/09/27 10:13:58;;;;;;;10.60;4.60;;;;;;;22.23;40.67;101204.58;111949;1224;60393;-80
2021/09/27 10:17:27;;;;;;;9.80;4.70;;;;;;;22.23;40.61;101200.63;112030;1222;60202;-81
2021/09/27 10:20:18;;;;;;;9.90;5.00;;;;;;;22.23;40.48;101199.16;112455;1225;73711;-80
2021/09/27 10:23:22;;;;;;;;;;;;;;;;;;;;;
2021/09/27 10:26:13;;;;;;;20.90;6.60;;;;;;;22.26;40.43;101194.50;111535;1227;60265;-80
2021/09/27 10:28:40;;;;;;;15.10;8.10;;;;;;;22.28;40.36;101200.08;112969;1224;61236;-80
2021/09/27 10:31:47;;;;;;;13.80;7.80;;;;;;;22.33;40.29;101199.08;112087;1221;72416;-80
2021/09/27 10:34:41;;;;;;;10.60;6.20;;;;;;;22.33;40.07;101192.20;112454;1219;74584;-81
2021/09/27 10:37:47;;;;;;;11.90;7.20;;;;;;;22.33;40.01;101193.70;112023;1221;60254;-84
2021/09/27 10:41:03;;;;;;;;;;;;;;;;;;;;;
2021/09/27 10:44:28;;;;;;;16.40;6.70;;;;;;;22.37;39.78;101183.92;111833;1222;71263;-80
2021/09/27 10:47:02;;;;;;;12.10;6.50;;;;;;;22.36;39.66;101180.91;112542;1224;74297;-80
2021/09/27 10:49:33;;;;;;;16.00;6.50;;;;;;;22.36;39.88;101175.57;112706;1222;60610;-79
2021/09/27 10:52:19;;;;;;;15.50;6.70;;;;;;;22.35;39.85;101173.10;113403;1216;59145;-80
2021/09/27 10:54:54;;;;;;;10.00;5.80;;;;;;;22.37;40.06;101178.17;113484;1216;70980;-80
2021/09/27 10:57:40;;;;;;;;;;;;;;;;;;;;;
2021/09/27 11:00:36;;;;;;;13.30;5.50;;;;;;;22.45;40.02;101179.07;113336;1216;60777;-81
2021/09/27 11:03:31;;;;;;;12.90;5.60;;;;;;;22.45;39.92;101172.23;113694;1211;61303;-81
2021/09/27 11:06:18;;;;;;;16.60;6.40;;;;;;;22.42;39.80;101165.60;114017;1212;72773;-81
2021/09/27 11:09:21;;;;;;;9.30;5.50;;;;;;;22.42;40.20;101167.80;114066;1211;73642;-81
2021/09/27 11:12:00;;;;;;;8.70;5.30;;;;;;;22.45;39.83;101165.80;114080;1212;60393;-80
2021/09/27 11:14:51;;;;;;;7.90;5.20;;;;;;;22.48;39.67;101162.51;113233;1212;61420;-81
2021/09/27 11:17:38;;;;;;;11.30;4.80;;;;;;;22.48;39.70;101158.71;114044;1212;72055;-81
2021/09/27 11:20:40;;;;;;;8.90;4.40;;;;;;;22.50;39.65;101160.77;113345;1209;73698;-79
2021/09/27 11:23:36;;;;;;;9.70;5.20;;;;;;;22.51;39.49;101156.55;113170;1210;60140;-81
2021/09/27 11:27:13;;;;;;;;;;;;;;;;;;;;;
2021/09/27 11:30:38;;;;;;;10.40;5.50;;;;;;;22.52;39.71;101148.80;112572;1216;73959;-80
2021/09/27 11:34:07;;;;;;;;;;;;;;;;;;;;;
2021/09/27 11:37:55;;;;;;;14.50;5.30;;;;;;;22.50;39.98;101148.02;112891;1216;60152;-80
2021/09/27 11:41:24;;;;;;;12.80;5.70;;;;;;;22.50;40.27;101145.38;112262;1224;61181;-80
2021/09/27 11:44:57;;;;;;;14.60;5.50;;;;;;;22.49;40.15;101139.63;111916;1226;73518;-81
2021/09/27 11:48:11;;;;;;;12.20;5.50;;;;;;;22.53;40.01;101132.21;111158;1232;74099;-79
2021/09/27 11:51:39;;;;;;;;;;;;;;;;;;;;;
2021/09/27 11:55:28;;;;;;;;;;;;;;;;;;;;;
2021/09/27 11:58:53;;;;;;;7.50;4.20;;;;;;;22.50;39.89;101127.89;111320;1236;72639;-80
2021/09/27 12:01:49;;;;;;;12.00;4.60;;;;;;;22.56;39.86;101126.05;109983;1239;74005;-82
2021/09/27 12:04:57;;;;;;;12.00;5.00;;;;;;;22.58;39.60;101121.60;110638;1237;59958;-80
2021/09/27 12:08:20;;;;;;;;;;;;;;;;;;;;;
2021/09/27 12:12:13;;;;;;;;;;;;;;;;;;;;;
2021/09/27 12:15:48;;;;;;;9.80;4.70;;;;;;;22.53;39.85;101098.32;110564;1236;73845;-84
2021/09/27 12:19:10;;;;;;;12.10;4.80;;;;;;;22.51;39.56;101096.97;111024;1230;61289;-81
2021/09/27 12:22:18;;;;;;;8.10;4.80;;;;;;;22.50;39.62;101094.58;111293;1230;60451;-84
2021/09/27 12:29:33;;;;;;;12.10;4.90;;;;;;;22.47;39.85;101091.06;111007;1233;72629;-80
2021/09/27 12:33:02;;;;;;;10.60;5.00;;;;;;;22.46;39.83;101085.17;110806;1233;61507;-81
2021/09/27 12:35:58;;;;;;;;;;;;;;;;;;;;;
2021/09/27 12:39:42;;;;;;;;;;;;;;;;;;;;;
2021/09/27 12:43:32;;;;;;;8.00;4.70;;;;;;;22.40;40.48;101071.27;110666;1237;75223;-82
2021/09/27 12:47:03;;;;;;;9.00;4.40;;;;;;;22.38;40.59;101072.99;110310;1241;60378;-90
2021/09/27 12:50:17;;;;;;;;;;;;;;;;;;;;;
2021/09/27 12:54:44;;;;;;;9.40;5.00;;;;;;;22.35;40.65;101069.27;109858;1245;71796;-89
2021/09/27 12:57:59;;;;;;;;;;;;;;;;;;;;;
2021/09/27 13:01:08;;;;;;;9.10;4.60;;;;;;;22.34;40.91;101064.52;109650;1248;60296;-84
2021/09/27 13:04:36;;;;;;;;;;;;;;;;;;;;;
2021/09/27 13:08:02;;;;;;;12.70;5.10;;;;;;;22.34;41.21;101063.06;109565;1246;73662;-83
2021/09/27 13:11:29;;;;;;;8.70;4.80;;;;;;;22.34;41.29;101065.23;109685;1247;72594;-82
2021/09/27 13:15:16;;;;;;;13.00;4.90;;;;;;;22.33;41.20;101065.63;109963;1244;60364;-83
2021/09/27 13:18:30;;;;;;;;;;;;;;;;;;;;;
2021/09/27 13:21:52;;;;;;;;;;;;;;;;;;;;;
2021/09/27 13:37:00;;;;;;;;;;;;;;;;;;;;;
2021/09/27 13:40:37;;;;;;;;;;;;;;;;;;;;;
2021/09/27 13:44:54;;;;;;;6.60;4.20;;;;;;;22.32;41.51;101056.07;112614;1223;60649;-86
2021/09/27 13:55:36;;;;;;;;;;;;;;;;;;;;;
2021/09/27 13:59:07;;;;;;;7.80;4.90;;;;;;;22.30;41.83;101041.86;109865;1245;59128;-82
2021/09/27 14:02:14;;;;;;;8.60;4.60;;;;;;;22.30;41.78;101043.30;109757;1248;72812;-80
2021/09/27 14:09:07;;;;;;;;;;;;;;;;;;;;;
2021/09/27 14:12:34;;;;;;;12.80;4.90;;;;;;;22.31;41.95;101036.40;113316;1208;73470;-83
2021/09/27 14:16:00;;;;;;;9.60;4.60;;;;;;;22.31;41.93;101038.52;113282;1211;59220;-83
2021/09/27 14:19:20;;;;;;;;;;;;;;;;;;;;;
2021/09/27 14:22:46;;;;;;;8.60;4.20;;;;;;;22.30;41.89;101031.05;113004;1203;70222;-83
2021/09/27 14:26:33;;;;;;;8.30;4.90;;;;;;;22.30;42.08;101029.86;112133;1225;70874;-91
2021/09/27 14:29:52;;;;;;;;;;;;;;;;;;;;;
2021/09/27 14:37:58;;;;;;;11.90;4.90;;;;;;;22.26;42.23;101027.39;110766;1236;72603;-83
2021/09/27 14:41:02;;;;;;;6.50;4.20;;;;;;;22.25;42.33;101029.41;110350;1241;70883;-87
2021/09/27 14:44:35;;;;;;;8.70;4.50;;;;;;;22.25;42.36;101028.52;110298;1241;61755;-80
2021/09/27 14:55:53;;;;;;;;;;;;;;;;;;;;;
2021/09/27 14:59:20;;;;;;;;;;;;;;;;;;;;;
2021/09/27 15:02:56;;;;;;;;;;;;;;;;;;;;;
2021/09/27 15:07:08;;;;;;;7.40;4.10;;;;;;;22.24;42.51;101027.89;110630;1238;71220;-83
2021/09/27 15:10:30;;;;;;;7.60;4.20;;;;;;;22.23;42.47;101026.68;110160;1241;69780;-81
2021/09/27 15:14:09;;;;;;;;;;;;;;;;;;;;;
2021/09/27 15:29:05;;;;;;;7.10;4.60;;;;;;;22.25;42.71;101029.61;113031;1217;59465;-89
2021/09/27 15:32:42;;;;;;;;;;;;;;;;;;;;;
2021/09/27 15:36:20;;;;;;;;;;;;;;;;;;;;;
2021/09/27 15:40:11;;;;;;;9.10;4.00;;;;;;;22.24;42.85;101033.27;112404;1225;70859;-86
2021/09/27 15:44:23;;;;;;;7.70;4.40;;;;;;;22.24;43.01;101035.27;111712;1228;58958;-84
2021/09/27 15:51:28;;;;;;;7.00;4.20;;;;;;;22.24;42.99;101043.15;111508;1230;72508;-84
2021/09/27 15:54:45;;;;;;;;;;;;;;;;;;;;;
2021/09/27 15:58:32;;;;;;;;;;;;;;;;;;;;;
2021/09/27 16:02:09;;;;;;;;;;;;;;;;;;;;;
2021/09/27 16:05:47;;;;;;;;;;;;;;;;;;;;;
2021/09/27 16:09:13;;;;;;;;;;;;;;;;;;;;;
2021/09/27 16:13:45;;;;;;;6.80;4.50;;;;;;;22.28;43.12;101051.30;113233;1208;602097;-83
2021/09/27 16:17:34;;;;;;;6.90;4.20;;;;;;;22.25;43.15;101054.77;113169;1214;71173;-81
2021/09/27 16:21:29;;;;;;;;;;;;;;;;;;;;;
2021/09/27 16:28:32;;;;;;;6.00;3.90;;;;;;;22.24;43.16;101069.33;111685;1230;73761;-88
2021/09/27 16:32:28;;;;;;;7.10;4.60;;;;;;;22.24;43.20;101075.79;111283;1234;74137;-87
2021/09/27 16:36:05;;;;;;;;;;;;;;;;;;;;;
2021/09/27 16:39:30;;;;;;;;;;;;;;;;;;;;;
2021/09/27 16:43:18;;;;;;;6.70;4.10;;;;;;;22.22;43.23;101087.90;110215;1243;71255;-91
2021/09/27 16:47:07;;;;;;;;;;;;;;;;;;;;;
2021/09/27 16:54:36;;;;;;;;;;;;;;;;;;;;;
2021/09/27 16:57:52;;;;;;;;;;;;;;;;;;;;;
2021/09/27 17:01:39;;;;;;;;;;;;;;;;;;;;;
2021/09/27 17:04:49;;;;;;;8.00;4.50;;;;;;;22.22;43.23;101093.83;112761;1221;59929;-83
2021/09/27 17:08:04;;;;;;;;;;;;;;;;;;;;;
2021/09/27 17:11:21;;;;;;;;;;;;;;;;;;;;;
2021/09/27 17:21:47;;;;;;;;;;;;;;;;;;;;;
2021/09/27 17:25:12;;;;;;;;;;;;;;;;;;;;;
2021/09/27 17:28:29;;;;;;;6.30;4.30;;;;;;;22.21;43.53;101104.69;110978;1236;61410;-83
2021/09/27 17:32:16;;;;;;;6.10;4.20;;;;;;;22.21;43.43;101107.75;110240;1243;59694;-86
2021/09/27 17:35:34;;;;;;;;;;;;;;;;;;;;;
2021/09/27 17:39:08;;;;;;;6.90;4.10;;;;;;;22.20;43.49;101110.70;109715;1250;71737;-80
2021/09/27 17:42:26;;;;;;;;;;;;;;;;;;;;;
2021/09/27 17:45:29;;;;;;;;;;;;;;;;;;;;;
2021/09/27 17:49:16;;;;;;;8.40;4.50;;;;;;;22.19;43.56;101108.58;109920;1244;73795;-83
2021/09/27 17:52:36;;;;;;;;;;;;;;;;;;;;;
2021/09/27 17:55:34;;;;;;;5.50;4.10;;;;;;;22.19;43.63;101111.45;109727;1248;60927;-82
2021/09/27 17:58:31;;;;;;;;;;;;;;;;;;;;;
2021/09/27 18:01:48;;;;;;;;;;;;;;;;;;;;;
2021/09/27 18:05:05;;;;;;;6.40;4.10;;;;;;;22.19;43.63;101113.61;109880;1247;72960;-87
2021/09/27 18:08:37;;;;;;;6.30;4.40;;;;;;;22.19;43.69;101114.71;109717;1243;61632;-82
2021/09/27 18:12:03;;;;;;;5.90;4.20;;;;;;;22.19;43.76;101120.63;110170;1241;59412;-87
2021/09/27 18:19:09;;;;;;;;;;;;;;;;;;;;;
2021/09/27 18:22:28;;;;;;;6.20;4.20;;;;;;;22.19;43.81;101137.48;110382;1240;60249;-82
2021/09/27 18:25:37;;;;;;;6.60;4.30;;;;;;;22.19;43.82;101134.59;110063;1240;60277;-82
2021/09/27 18:28:46;;;;;;;;;;;;;;;;;;;;;
2021/09/27 18:31:52;;;;;;;;;;;;;;;;;;;;;
2021/09/27 18:35:39;;;;;;;7.70;4.30;;;;;;;22.19;43.93;101143.34;110539;1237;60313;-78
2021/09/27 18:42:27;;;;;;;;;;;;;;;;;;;;;
2021/09/27 18:46:02;;;;;;;6.60;4.00;;;;;;;22.19;44.05;101151.42;110489;1239;72923;-84
2021/09/27 18:49:53;;;;;;;6.60;4.20;;;;;;;22.19;44.02;101150.15;110369;1241;60511;-81
2021/09/27 18:52:36;;;;;;;;;;;;;;;;;;;;;
2021/09/27 18:56:15;;;;;;;5.20;3.60;;;;;;;22.17;44.11;101149.77;110377;1240;71477;-83
2021/09/27 18:59:30;;;;;;;;;;;;;;;;;;;;;
2021/09/27 19:03:10;;;;;;;;;;;;;;;;;;;;;
2021/09/27 19:06:40;;;;;;;7.00;4.30;;;;;;;22.17;44.25;101165.34;110423;1239;59905;-85
2021/09/27 19:09:48;;;;;;;5.80;4.20;;;;;;;22.18;44.36;101161.02;110631;1238;73630;-79
2021/09/27 19:13:18;;;;;;;7.10;4.60;;;;;;;22.18;44.41;101155.81;110600;1238;71752;-91
2021/09/27 19:16:45;;;;;;;6.20;4.00;;;;;;;22.17;44.57;101162.66;110623;1238;59539;-85
2021/09/27 19:19:53;;;;;;;5.50;4.20;;;;;;;22.17;44.55;101166.42;110870;1235;60385;-85
2021/09/27 19:23:53;;;;;;;5.90;4.10;;;;;;;22.17;44.64;101160.35;111079;1234;72735;-85
2021/09/27 19:30:41;;;;;;;;;;;;;;;;;;;;;
2021/09/27 19:34:19;;;;;;;7.30;4.40;;;;;;;22.17;44.62;101171.80;110787;1235;60274;-89
2021/09/27 19:37:56;;;;;;;;;;;;;;;;;;;;;
2021/09/27 19:41:04;;;;;;;;;;;;;;;;;;;;;
2021/09/27 19:44:57;;;;;;;;;;;;;;;;;;;;;
2021/09/27 19:48:16;;;;;;;;;;;;;;;;;;;;;
2021/09/27 19:51:56;;;;;;;;;;;;;;;;;;;;;
2021/09/27 19:58:43;;;;;;;8.10;4.80;;;;;;;22.18;45.03;101162.99;110255;1244;60089;-82
2021/09/27 20:02:01;;;;;;;;;;;;;;;;;;;;;
2021/09/27 20:05:15;;;;;;;;;;;;;;;;;;;;;
2021/09/27 20:08:54;;;;;;;;;;;;;;;;;;;;;
2021/09/27 20:12:15;;;;;;;;;;;;;;;;;;;;;
2021/09/27 20:15:17;;;;;;;5.50;4.30;;;;;;;22.17;45.51;101167.86;110481;1240;60866;-83
2021/09/27 20:19:04;;;;;;;7.70;5.00;;;;;;;22.18;45.62;101168.73;110300;1241;72553;-86
2021/09/27 20:22:16;;;;;;;;;;;;;;;;;;;;;
2021/09/27 20:25:59;;;;;;;7.90;5.00;;;;;;;22.18;45.55;101170.17;110077;1244;61374;-87
2021/09/27 20:29:26;;;;;;;7.70;4.70;;;;;;;22.17;45.66;101177.55;110247;1242;60310;-83
2021/09/27 20:32:30;;;;;;;7.10;4.90;;;;;;;22.17;45.67;101189.02;110139;1244;72368;-89
2021/09/27 20:35:56;;;;;;;;;;;;;;;;;;;;;
2021/09/27 20:39:52;;;;;;;6.80;5.00;;;;;;;22.18;45.78;101205.12;110330;1241;61149;-84
2021/09/27 20:43:10;;;;;;;6.00;4.90;;;;;;;22.17;45.92;101198.17;110454;1240;59357;-83
2021/09/27 20:46:46;;;;;;;;;;;;;;;;;;;;;
2021/09/27 20:50:01;;;;;;;;;;;;;;;;;;;;;
2021/09/27 20:53:23;;;;;;;;;;;;;;;;;;;;;
2021/09/27 20:56:29;;;;;;;8.20;5.20;;;;;;;22.18;46.09;101193.46;110860;1235;59577;-86
2021/09/27 21:00:28;;;;;;;;;;;;;;;;;;;;;
2021/09/27 21:08:01;;;;;;;6.60;5.20;;;;;;;22.17;46.35;101191.02;110400;1241;59429;-87
2021/09/27 21:11:11;;;;;;;7.50;5.40;;;;;;;22.17;46.48;101196.77;110545;1240;59683;-84
2021/09/27 21:14:21;;;;;;;;;;;;;;;;;;;;;
2021/09/27 21:17:41;;;;;;;7.40;5.30;;;;;;;22.18;46.70;101199.03;110561;1240;71803;-85
2021/09/27 21:21:26;;;;;;;;;;;;;;;;;;;;;
2021/09/27 21:25:04;;;;;;;6.70;5.50;;;;;;;22.17;46.59;101199.27;110620;1238;60578;-81
2021/09/27 21:28:02;;;;;;;7.70;5.80;;;;;;;22.17;46.66;101198.17;110636;1240;72375;-84
2021/09/27 21:35:16;;;;;;;;;;;;;;;;;;;;;
2021/09/27 21:38:53;;;;;;;;;;;;;;;;;;;;;
2021/09/27 21:42:20;;;;;;;8.30;5.40;;;;;;;22.17;46.91;101195.52;110259;1241;71354;-84
2021/09/27 21:45:46;;;;;;;8.10;5.70;;;;;;;22.17;47.08;101194.25;110521;1241;71619;-84
2021/09/27 21:49:34;;;;;;;7.10;5.50;;;;;;;22.17;47.25;101197.11;110096;1244;61264;-80
2021/09/27 21:52:51;;;;;;;;;;;;;;;;;;;;;
2021/09/27 22:02:52;;;;;;;;;;;;;;;;;;;;;
2021/09/27 22:06:41;;;;;;;;;;;;;;;;;;;;;
2021/09/27 22:11:00;;;;;;;7.80;5.30;;;;;;;22.18;47.68;101204.20;111616;1230;58942;-89
2021/09/27 22:21:45;;;;;;;;;;;;;;;;;;;;;
2021/09/27 22:24:52;;;;;;;;;;;;;;;;;;;;;
2021/09/27 22:28:01;;;;;;;;;;;;;;;22.18;47.88;101220.15;110543;1241;73907;-86